Latest Coastal Weather Observations for Coffs Harbour

IDN60701

Issued at 2:21 pm EDT Monday 23 March 2015 (issued every 10 minutes, with the page automatically refreshed every 10 minutes)

About coastal observations | Map of coastal stations | Coastal observations for NSW | Marine services | Other Formats
Station Details ID: 059040 Name: COFFS HARBOUR MO Lat: -30.31 Lon: 153.12 Height: 5.0 m
Data from the previous 72 hours. | See also: Recent months at Coffs Harbour
Date/Time
EDT
Temp

°C
Wind Pressure Rain
since 9am
mm
Weather Cloud Vis
km
Sea
Height
m
Swell
Dir
 
Speed
knots
Gust
knots
hPa Trend Height
m
Period
s
Dir
23/02:00pm 25.9 NE 10 14 - - 0.0 - - - - - - -
23/01:30pm 25.1 NE 9 15 - - 0.0 - - - - - - -
23/01:00pm 25.0 ENE 9 12 - - 0.0 - - - - - - -
23/12:30pm 24.5 E 8 10 - - 0.0 - - - - - - -
23/12:00pm 24.3 ESE 7 9 - - 0.0 - - - - - - -
23/11:30am 24.0 E 6 7 - - 0.0 - - - - - - -
23/11:00am 23.1 SW 1 4 - - 0.0 - - - - - - -
23/10:00am 20.2 NNW 2 4 - - 0.0 - - - - - - -
23/09:00am 19.1 WSW 4 7 - - 9.6 - - - - - - -
23/08:30am 18.8 WNW 5 7 - - 9.6 - - - - - - -
23/08:00am 18.5 WSW 7 9 - - 9.6 - - - - - - -
23/07:30am 18.3 WSW 4 5 - - 9.6 - - - - - - -
23/07:00am 17.9 WNW 2 4 - - 9.6 - - - - - - -
23/06:30am 18.2 SW 5 7 - - 9.6 - - - - - - -
23/06:00am 18.5 SW 6 7 - - 9.6 - - - - - - -
23/05:30am 18.7 SSW 3 5 - - 9.6 - - - - - - -
23/05:00am 18.9 SW 8 10 - - 9.6 - - - - - - -
23/04:30am 18.9 SW 8 9 - - 9.6 - - - - - - -
23/04:00am 18.6 SW 6 9 - - 9.6 - - - - - - -
23/03:30am 18.7 SW 6 8 - - 9.6 - - - - - - -
23/03:00am 18.8 SW 7 9 - - 9.6 - - - - - - -
23/02:30am 18.7 WSW 8 14 - - 9.6 - - - - - - -
23/02:00am 18.6 SW 7 10 - - 9.6 - - - - - - -
23/01:30am 18.6 WSW 7 8 - - 9.6 - - - - - - -
23/01:00am 18.8 WSW 8 10 - - 9.6 - - - - - - -
23/12:30am 18.9 WSW 8 11 - - 9.6 - - - - - - -
 
Date/Time
EDT
Temp

°C
Wind Pressure Rain
since 9am
mm
Weather Cloud Vis
km
Sea
Height
m
Swell
Dir
 
Speed
knots
Gust
knots
hPa Trend Height
m
Period
s
Dir
22/11:30pm 19.1 SW 5 8 - - 8.2 - - - - - - -
22/11:00pm 18.9 SW 9 11 - - 8.2 - - - - - - -
22/10:30pm 19.0 SW 9 12 - - 7.8 - - - - - - -
22/10:00pm 19.2 WSW 8 12 - - 7.4 - - - - - - -
22/09:30pm 19.2 WSW 7 10 - - 6.4 - - - - - - -
22/09:00pm 19.4 WSW 7 9 - - 6.4 Rain - - - - - -
22/08:30pm 19.6 WSW 5 7 - - 6.0 - - - - - - -
22/08:00pm 19.6 WSW 7 9 - - 6.0 - - - - - - -
22/07:30pm 19.7 SW 7 12 - - 5.8 - - - - - - -
22/07:00pm 20.1 WSW 6 7 - - 5.8 - - - - - - -
22/06:30pm 20.3 WSW 6 9 - - 5.8 - - - - - - -
22/06:00pm 20.6 WNW 7 8 - - 5.8 Recent precip. - - - - - -
22/05:30pm 20.5 NW 7 8 - - 5.8 - - - - - - -
22/05:00pm 20.4 WNW 4 6 - - 5.6 - - - - - - -
22/04:30pm 20.5 SSW 9 11 - - 2.4 - - - - - - -
22/04:00pm 21.3 S 12 17 - - 1.4 - - - - - - -
22/03:30pm 22.7 S 10 13 - - 0.0 - - - - - - -
22/03:00pm 23.2 S 8 12 - - 0.0 - - - - - - -
22/02:30pm 22.8 SW 9 12 - - 0.0 - - - - - - -
22/02:00pm 22.0 SW 11 15 - - 0.0 - - - - - - -
22/01:30pm 21.8 SW 13 17 - - 0.0 - - - - - - -
22/01:00pm 21.0 SW 15 19 - - 0.0 - - - - - - -
22/12:30pm 20.4 SW 15 20 - - 0.0 - - - - - - -
22/12:00pm 21.2 SW 17 22 - - 0.0 - - - - - - -
22/11:30am 21.5 SW 17 22 - - 0.0 - - - - - - -
22/11:00am 21.8 SW 17 27 - - 0.0 - - - - - - -
22/10:58am 21.9 SW 16 27 - - 0.0 - - - - - - -
22/10:30am 22.6 SW 16 23 - - 0.0 - - - - - - -
22/10:00am 22.9 SW 14 18 - - 0.0 - - - - - - -
22/09:30am 23.4 SW 16 21 - - 0.0 - - - - - - -
22/09:00am 22.5 SW 13 19 - - 22.8 - - - - - - -
22/08:30am 22.2 SW 13 18 - - 22.8 - - - - - - -
22/08:00am 22.1 WSW 9 13 - - 22.8 - - - - - - -
22/07:30am 21.2 WSW 7 12 - - 22.8 - - - - - - -
22/07:00am 20.7 WSW 8 10 - - 22.8 - - - - - - -
22/06:30am 20.6 SW 7 8 - - 22.8 - - - - - - -
22/06:00am 20.6 SW 7 9 - - 22.8 - - - - - - -
22/05:30am 20.6 SW 6 8 - - 22.8 - - - - - - -
22/05:00am 21.0 S 6 7 - - 22.8 - - - - - - -
22/04:30am 20.7 W 5 6 - - 22.8 - - - - - - -
22/04:00am 20.6 W 5 7 - - 22.8 - - - - - - -
22/03:30am 20.6 WNW 6 7 - - 22.6 - - - - - - -
22/03:00am 20.7 CALM 0 0 - - 22.6 - - - - - - -
22/02:30am 20.9 W 6 8 - - 22.6 - - - - - - -
22/02:00am 21.1 S 4 8 - - 22.6 - - - - - - -
22/01:30am 21.1 WNW 1 4 - - 22.6 - - - - - - -
22/01:00am 21.1 W 6 8 - - 22.4 - - - - - - -
22/12:30am 21.1 WSW 7 9 - - 22.4 - - - - - - -
22/12:00am 21.2 SSW 8 10 - - 22.4 - - - - - - -
 
Date/Time
EDT
Temp

°C
Wind Pressure Rain
since 9am
mm
Weather Cloud Vis
km
Sea
Height
m
Swell
Dir
 
Speed
knots
Gust
knots
hPa Trend Height
m
Period
s
Dir
21/11:30pm 21.2 SW 11 15 - - 22.4 - - - - - - -
21/11:00pm 21.2 SW 13 18 - - 22.4 - - - - - - -
21/10:30pm 21.3 SW 9 12 - - 22.4 - - - - - - -
21/10:00pm 21.4 WSW 9 12 - - 22.4 - - - - - - -
21/09:30pm 21.2 W 8 11 - - 22.4 - - - - - - -
21/09:00pm 21.1 WSW 12 16 - - 22.4 - - - - - - -
21/08:30pm 21.2 SW 11 15 - - 22.4 - - - - - - -
21/08:00pm 21.1 SW 11 15 - - 22.4 - - - - - - -
21/07:30pm 21.1 SW 12 18 - - 22.4 - - - - - - -
21/07:00pm 21.0 SW 11 16 - - 22.4 - - - - - - -
21/06:30pm 21.1 WSW 13 17 - - 22.0 - - - - - - -
21/06:00pm 21.2 WSW 12 18 - - 21.4 Rain - - - - - -
21/05:30pm 21.3 WSW 11 15 - - 19.0 - - - - - - -
21/05:00pm 21.3 WSW 9 14 - - 17.8 - - - - - - -
21/04:30pm 21.3 WSW 8 14 - - 16.2 - - - - - - -
21/04:00pm 21.3 WSW 10 14 - - 10.8 - - - - - - -
21/03:30pm 21.5 WSW 16 22 - - 6.8 - - - - - - -
21/03:00pm 22.1 SW 13 18 - - 0.4 - - - - - - -
21/02:30pm 21.6 SW 11 15 - - 0.4 - - - - - - -
21/02:00pm 21.9 SW 14 18 - - 0.0 - - - - - - -
21/01:30pm 22.2 SW 15 19 - - 0.0 - - - - - - -
21/01:00pm 22.0 SW 14 21 - - 0.0 - - - - - - -
21/12:30pm 22.6 SW 16 20 - - 0.0 - - - - - - -
21/12:00pm 22.4 SW 15 20 - - 0.0 - - - - - - -
21/11:30am 22.5 SW 17 23 - - 0.0 - - - - - - -
21/11:00am 22.8 SW 17 23 - - 0.0 - - - - - - -
21/10:30am 22.6 WSW 18 23 - - 0.0 - - - - - - -
21/10:00am 23.2 SW 19 27 - - 0.0 - - - - - - -
21/09:53am 23.5 SW 17 27 - - 0.0 - - - - - - -
21/09:30am 23.1 SW 19 25 - - 0.0 - - - - - - -
21/09:00am 22.9 SW 17 25 - - 0.0 - - - - - - -
21/08:30am 22.7 SW 16 23 - - 0.0 - - - - - - -
21/08:00am 22.4 SW 16 22 - - 0.0 - - - - - - -
21/07:30am 22.3 SSW 16 21 - - 0.0 - - - - - - -
21/07:00am 23.3 SW 16 22 - - 0.0 - - - - - - -
21/06:30am 23.3 SW 14 21 - - 0.0 - - - - - - -
21/06:00am 23.3 SW 17 22 - - 0.0 - - - - - - -
21/05:30am 23.3 SW 15 20 - - 0.0 - - - - - - -
21/05:00am 23.4 SW 15 19 - - 0.0 - - - - - - -
21/04:30am 23.6 SSW 15 21 - - 0.0 - - - - - - -
21/04:00am 24.0 SSW 14 19 - - 0.0 - - - - - - -
21/03:30am 24.3 SSW 14 20 - - 0.0 - - - - - - -
21/03:00am 24.7 SSW 13 17 - - 0.0 - - - - - - -
21/02:30am 24.8 S 19 24 - - 0.0 - - - - - - -
21/02:00am 25.1 SSW 20 26 - - 0.0 - - - - - - -
21/01:30am 25.3 SSW 17 23 - - 0.0 - - - - - - -
21/01:01am 25.4 SSW 20 30 - - 0.0 - - - - - - -
21/01:00am 25.3 SSW 21 30 - - 0.0 - - - - - - -
21/12:30am 25.4 SSW 23 33 - - 0.0 - - - - - - -
21/12:13am 26.0 SW 18 29 - - 0.0 - - - - - - -
21/12:00am 26.1 SW 13 18 - - 0.0 - - - - - - -
 
Date/Time
EDT
Temp

°C
Wind Pressure Rain
since 9am
mm
Weather Cloud Vis
km
Sea
Height
m
Swell
Dir
 
Speed
knots
Gust
knots
hPa Trend Height
m
Period
s
Dir
20/11:30pm 25.6 N 7 10 - - 0.0 - - - - - - -
20/11:00pm 25.9 NE 10 13 - - 0.0 - - - - - - -
20/10:30pm 26.1 NNE 11 14 - - 0.0 - - - - - - -
20/10:00pm 26.2 NE 12 14 - - 0.0 - - - - - - -
20/09:30pm 26.0 NNE 9 12 - - 0.0 - - - - - - -
20/09:00pm 26.5 NNE 9 13 - - 0.0 - - - - - - -
20/08:30pm 26.1 NNE 10 13 - - 0.0 - - - - - - -
20/08:00pm 26.0 NNE 11 14 - - 0.0 - - - - - - -
20/07:30pm 26.3 NNE 12 16 - - 0.0 - - - - - - -
20/07:00pm 26.6 NNE 14 19 - - 0.0 - - - - - - -
20/06:30pm 27.0 NE 15 19 - - 0.0 - - - - - - -
20/06:00pm 27.5 NE 16 19 - - 0.0 - - - - - - -
20/05:30pm 28.1 NE 17 22 - - 0.0 - - - - - - -
20/05:00pm 28.8 NE 15 20 - - 0.0 - - - - - - -
20/04:30pm 28.8 NE 17 22 - - 0.0 - - - - - - -
20/04:00pm 28.8 NNE 18 24 - - 0.0 - - - - - - -
20/03:30pm 28.5 NE 18 25 - - 0.0 - - - - - - -
20/03:00pm 29.3 NE 18 24 - - 0.0 - - - - - - -
20/02:30pm 29.0 NE 18 25 - - 0.0 - - - - - - -

Other Formats:

Comma delimited format used in spreadsheet applications
http://www.bom.gov.au/fwo/IDN60701/IDN60701.94791.axf

JavaScript Object Notation format (JSON) in row-major order
http://www.bom.gov.au/fwo/IDN60701/IDN60701.94791.json